Soledade, Brazil
Current Conditions -  °F | °C
As of 7:00 AM on Monday 20 Oct 2014 (Local Time) from SBPF Reporting Station
Scattered Clouds Scattered Clouds  
Wind Chill: 57°   Ceiling: Unl
Heat Index: 57°   Visibility: 6mi
Dew Point: 54°   Wind: 14mph
Humidity: 88%   Direction: 110°ESE
Pressure: 30.09"   Gusts: NA
Location:  28.82°S, 52.51°W
Report Text: SBPF 201000Z 11012KT 9999 SCT035 14/12 Q1019
Loading
Personal Weather Stations






























Interactive Weather Map
Tropical Storm Tracking
New forecast layout! Learn more

10-Day Weather Forecast

Advertisements
Track Severe Weather on mobile